sensor_id;sensor_type;location;lat;lon;timestamp;temperature;humidity
16728;DHT22;8482;54.396;18.590;2023-02-12T00:01:10;6.30;99.90
16728;DHT22;8482;54.396;18.590;2023-02-12T00:03:38;6.30;99.90
16728;DHT22;8482;54.396;18.590;2023-02-12T00:06:05;6.30;99.90
16728;DHT22;8482;54.396;18.590;2023-02-12T00:08:32;6.30;99.90
16728;DHT22;8482;54.396;18.590;2023-02-12T00:10:59;6.30;99.90
16728;DHT22;8482;54.396;18.590;2023-02-12T00:13:31;6.30;99.90
16728;DHT22;8482;54.396;18.590;2023-02-12T00:15:57;6.30;99.90
16728;DHT22;8482;54.396;18.590;2023-02-12T00:18:22;6.30;99.90
16728;DHT22;8482;54.396;18.590;2023-02-12T00:20:48;6.30;99.90
16728;DHT22;8482;54.396;18.590;2023-02-12T00:23:14;6.30;99.90
16728;DHT22;8482;54.396;18.590;2023-02-12T00:25:41;6.30;99.90
16728;DHT22;8482;54.396;18.590;2023-02-12T00:28:07;6.30;99.90
16728;DHT22;8482;54.396;18.590;2023-02-12T00:30:33;6.30;99.90
16728;DHT22;8482;54.396;18.590;2023-02-12T00:32:59;6.30;99.90
16728;DHT22;8482;54.396;18.590;2023-02-12T00:35:26;6.30;99.90
16728;DHT22;8482;54.396;18.590;2023-02-12T00:37:51;6.30;99.90
16728;DHT22;8482;54.396;18.590;2023-02-12T00:40:17;6.20;99.90
16728;DHT22;8482;54.396;18.590;2023-02-12T00:42:43;6.30;99.90
16728;DHT22;8482;54.396;18.590;2023-02-12T00:45:09;6.20;99.90
16728;DHT22;8482;54.396;18.590;2023-02-12T00:47:35;6.20;99.90
16728;DHT22;8482;54.396;18.590;2023-02-12T00:50:01;6.20;99.90
16728;DHT22;8482;54.396;18.590;2023-02-12T00:52:26;6.20;99.90
16728;DHT22;8482;54.396;18.590;2023-02-12T00:54:52;6.20;99.90
16728;DHT22;8482;54.396;18.590;2023-02-12T00:57:18;6.20;99.90
16728;DHT22;8482;54.396;18.590;2023-02-12T00:59:44;6.20;99.90
16728;DHT22;8482;54.396;18.590;2023-02-12T01:02:09;6.20;99.90
16728;DHT22;8482;54.396;18.590;2023-02-12T01:04:35;6.20;99.90
16728;DHT22;8482;54.396;18.590;2023-02-12T01:07:01;6.20;99.90
16728;DHT22;8482;54.396;18.590;2023-02-12T01:09:27;6.20;99.90
16728;DHT22;8482;54.396;18.590;2023-02-12T01:11:53;6.10;99.90
16728;DHT22;8482;54.396;18.590;2023-02-12T01:14:18;6.10;99.90
16728;DHT22;8482;54.396;18.590;2023-02-12T01:16:44;6.10;99.90
16728;DHT22;8482;54.396;18.590;2023-02-12T01:19:11;6.10;99.90
16728;DHT22;8482;54.396;18.590;2023-02-12T01:21:37;6.10;99.90
16728;DHT22;8482;54.396;18.590;2023-02-12T01:24:03;6.10;99.90
16728;DHT22;8482;54.396;18.590;2023-02-12T01:26:30;6.00;99.90
16728;DHT22;8482;54.396;18.590;2023-02-12T01:28:59;6.00;99.90
16728;DHT22;8482;54.396;18.590;2023-02-12T01:31:30;6.00;99.90
16728;DHT22;8482;54.396;18.590;2023-02-12T01:34:07;6.00;99.90
16728;DHT22;8482;54.396;18.590;2023-02-12T01:36:34;6.00;99.90
16728;DHT22;8482;54.396;18.590;2023-02-12T01:39:01;6.00;99.90
16728;DHT22;8482;54.396;18.590;2023-02-12T01:41:38;6.00;99.90
16728;DHT22;8482;54.396;18.590;2023-02-12T01:46:34;6.00;99.90
16728;DHT22;8482;54.396;18.590;2023-02-12T01:49:01;6.00;99.90
16728;DHT22;8482;54.396;18.590;2023-02-12T01:51:32;6.00;99.90
16728;DHT22;8482;54.396;18.590;2023-02-12T01:54:02;6.00;99.90
16728;DHT22;8482;54.396;18.590;2023-02-12T01:56:33;5.90;99.90
16728;DHT22;8482;54.396;18.590;2023-02-12T01:58:59;5.90;99.90
16728;DHT22;8482;54.396;18.590;2023-02-12T02:01:28;5.90;99.90
16728;DHT22;8482;54.396;18.590;2023-02-12T02:04:04;5.90;99.90
16728;DHT22;8482;54.396;18.590;2023-02-12T02:09:42;5.90;99.90
16728;DHT22;8482;54.396;18.590;2023-02-12T02:12:09;5.80;99.90
16728;DHT22;8482;54.396;18.590;2023-02-12T02:14:55;5.80;99.90
16728;DHT22;8482;54.396;18.590;2023-02-12T02:17:38;5.80;99.90
16728;DHT22;8482;54.396;18.590;2023-02-12T02:23:14;5.80;99.90
16728;DHT22;8482;54.396;18.590;2023-02-12T02:31:50;5.70;99.90
16728;DHT22;8482;54.396;18.590;2023-02-12T02:34:32;5.70;99.90
16728;DHT22;8482;54.396;18.590;2023-02-12T02:37:18;5.60;99.90
16728;DHT22;8482;54.396;18.590;2023-02-12T02:39:52;5.60;99.90
16728;DHT22;8482;54.396;18.590;2023-02-12T02:42:41;5.50;99.90
16728;DHT22;8482;54.396;18.590;2023-02-12T02:45:15;5.40;99.90
16728;DHT22;8482;54.396;18.590;2023-02-12T02:48:01;5.40;99.90
16728;DHT22;8482;54.396;18.590;2023-02-12T02:50:33;5.40;99.90
16728;DHT22;8482;54.396;18.590;2023-02-12T02:53:09;5.30;99.90
16728;DHT22;8482;54.396;18.590;2023-02-12T02:55:46;5.30;99.90
16728;DHT22;8482;54.396;18.590;2023-02-12T02:59:04;5.20;99.90
16728;DHT22;8482;54.396;18.590;2023-02-12T03:04:23;5.20;99.90
16728;DHT22;8482;54.396;18.590;2023-02-12T03:07:02;5.10;99.90
16728;DHT22;8482;54.396;18.590;2023-02-12T03:09:52;5.10;99.90
16728;DHT22;8482;54.396;18.590;2023-02-12T03:12:37;5.00;99.90
16728;DHT22;8482;54.396;18.590;2023-02-12T03:18:36;4.90;99.90
16728;DHT22;8482;54.396;18.590;2023-02-12T03:21:13;4.80;99.90
16728;DHT22;8482;54.396;18.590;2023-02-12T03:26:55;4.80;99.90
16728;DHT22;8482;54.396;18.590;2023-02-12T03:29:27;4.70;99.90
16728;DHT22;8482;54.396;18.590;2023-02-12T03:37:35;4.60;99.90
16728;DHT22;8482;54.396;18.590;2023-02-12T03:40:32;4.50;99.90
16728;DHT22;8482;54.396;18.590;2023-02-12T03:46:22;4.50;99.90
16728;DHT22;8482;54.396;18.590;2023-02-12T03:49:16;4.50;99.90
16728;DHT22;8482;54.396;18.590;2023-02-12T03:51:48;4.40;99.90
16728;DHT22;8482;54.396;18.590;2023-02-12T03:54:18;4.40;99.90
16728;DHT22;8482;54.396;18.590;2023-02-12T03:56:54;4.40;99.90
16728;DHT22;8482;54.396;18.590;2023-02-12T03:59:26;4.30;99.90
16728;DHT22;8482;54.396;18.590;2023-02-12T04:01:56;4.30;99.90
16728;DHT22;8482;54.396;18.590;2023-02-12T04:04:24;4.30;99.90
16728;DHT22;8482;54.396;18.590;2023-02-12T04:06:52;4.30;99.90
16728;DHT22;8482;54.396;18.590;2023-02-12T04:09:19;4.30;99.90
16728;DHT22;8482;54.396;18.590;2023-02-12T04:14:53;4.20;99.90
16728;DHT22;8482;54.396;18.590;2023-02-12T04:18:00;4.20;99.90
16728;DHT22;8482;54.396;18.590;2023-02-12T04:20:52;4.30;99.90
16728;DHT22;8482;54.396;18.590;2023-02-12T04:23:55;4.30;99.90
16728;DHT22;8482;54.396;18.590;2023-02-12T04:29:04;4.30;99.90
16728;DHT22;8482;54.396;18.590;2023-02-12T04:31:47;4.30;99.90
16728;DHT22;8482;54.396;18.590;2023-02-12T04:37:14;4.30;99.90
16728;DHT22;8482;54.396;18.590;2023-02-12T04:39:44;4.30;99.90
16728;DHT22;8482;54.396;18.590;2023-02-12T04:42:11;4.20;99.90
16728;DHT22;8482;54.396;18.590;2023-02-12T04:44:39;4.20;99.90
16728;DHT22;8482;54.396;18.590;2023-02-12T04:47:09;4.20;99.90
16728;DHT22;8482;54.396;18.590;2023-02-12T04:49:39;4.10;99.90
16728;DHT22;8482;54.396;18.590;2023-02-12T04:52:05;4.10;99.90
16728;DHT22;8482;54.396;18.590;2023-02-12T04:54:31;4.10;99.90
16728;DHT22;8482;54.396;18.590;2023-02-12T04:56:57;4.10;99.90
16728;DHT22;8482;54.396;18.590;2023-02-12T04:59:24;4.10;99.90
16728;DHT22;8482;54.396;18.590;2023-02-12T05:01:50;4.10;99.90
16728;DHT22;8482;54.396;18.590;2023-02-12T05:04:16;4.00;99.90
16728;DHT22;8482;54.396;18.590;2023-02-12T05:06:44;4.00;99.90
16728;DHT22;8482;54.396;18.590;2023-02-12T05:09:17;4.00;99.90
16728;DHT22;8482;54.396;18.590;2023-02-12T05:11:44;4.00;99.90
16728;DHT22;8482;54.396;18.590;2023-02-12T05:14:11;4.00;99.90
16728;DHT22;8482;54.396;18.590;2023-02-12T05:16:37;4.00;99.90
16728;DHT22;8482;54.396;18.590;2023-02-12T05:19:03;4.00;99.90
16728;DHT22;8482;54.396;18.590;2023-02-12T05:21:29;4.00;99.90
16728;DHT22;8482;54.396;18.590;2023-02-12T05:23:55;4.00;99.90
16728;DHT22;8482;54.396;18.590;2023-02-12T05:26:21;3.90;99.90
16728;DHT22;8482;54.396;18.590;2023-02-12T05:28:47;3.90;99.90
16728;DHT22;8482;54.396;18.590;2023-02-12T05:31:16;3.90;99.90
16728;DHT22;8482;54.396;18.590;2023-02-12T05:33:44;3.90;99.90
16728;DHT22;8482;54.396;18.590;2023-02-12T05:36:14;3.90;99.90
16728;DHT22;8482;54.396;18.590;2023-02-12T05:38:42;3.90;99.90
16728;DHT22;8482;54.396;18.590;2023-02-12T05:41:13;3.90;99.90
16728;DHT22;8482;54.396;18.590;2023-02-12T05:43:43;3.90;99.90
16728;DHT22;8482;54.396;18.590;2023-02-12T05:46:10;3.90;99.90
16728;DHT22;8482;54.396;18.590;2023-02-12T05:48:37;3.80;99.90
16728;DHT22;8482;54.396;18.590;2023-02-12T05:51:09;3.90;99.90
16728;DHT22;8482;54.396;18.590;2023-02-12T05:53:38;3.90;99.90
16728;DHT22;8482;54.396;18.590;2023-02-12T05:56:13;3.90;99.90
16728;DHT22;8482;54.396;18.590;2023-02-12T05:58:51;3.90;99.90
16728;DHT22;8482;54.396;18.590;2023-02-12T06:01:22;3.90;99.90
16728;DHT22;8482;54.396;18.590;2023-02-12T06:03:49;3.90;99.90
16728;DHT22;8482;54.396;18.590;2023-02-12T06:06:15;3.90;99.90
16728;DHT22;8482;54.396;18.590;2023-02-12T06:08:41;3.90;99.90
16728;DHT22;8482;54.396;18.590;2023-02-12T06:11:11;3.90;99.90
16728;DHT22;8482;54.396;18.590;2023-02-12T06:13:38;3.90;99.90
16728;DHT22;8482;54.396;18.590;2023-02-12T06:16:04;3.90;99.90
16728;DHT22;8482;54.396;18.590;2023-02-12T06:18:30;3.90;99.90
16728;DHT22;8482;54.396;18.590;2023-02-12T06:21:02;3.90;99.90
16728;DHT22;8482;54.396;18.590;2023-02-12T06:23:28;4.00;99.90
16728;DHT22;8482;54.396;18.590;2023-02-12T06:25:55;4.00;99.90
16728;DHT22;8482;54.396;18.590;2023-02-12T06:28:21;4.00;99.90
16728;DHT22;8482;54.396;18.590;2023-02-12T06:30:47;4.00;99.90
16728;DHT22;8482;54.396;18.590;2023-02-12T06:33:13;4.00;99.90
16728;DHT22;8482;54.396;18.590;2023-02-12T06:35:39;4.00;99.90
16728;DHT22;8482;54.396;18.590;2023-02-12T06:38:05;4.10;99.90
16728;DHT22;8482;54.396;18.590;2023-02-12T06:40:31;4.00;99.90
16728;DHT22;8482;54.396;18.590;2023-02-12T06:42:57;4.10;99.90
16728;DHT22;8482;54.396;18.590;2023-02-12T06:45:23;4.10;99.90
16728;DHT22;8482;54.396;18.590;2023-02-12T06:47:49;4.10;99.90
16728;DHT22;8482;54.396;18.590;2023-02-12T06:50:16;4.10;99.90
16728;DHT22;8482;54.396;18.590;2023-02-12T06:52:42;4.10;99.90
16728;DHT22;8482;54.396;18.590;2023-02-12T06:55:08;4.20;99.90
16728;DHT22;8482;54.396;18.590;2023-02-12T06:57:34;4.20;99.90
16728;DHT22;8482;54.396;18.590;2023-02-12T06:59:59;4.20;99.90
16728;DHT22;8482;54.396;18.590;2023-02-12T07:02:25;4.20;99.90
16728;DHT22;8482;54.396;18.590;2023-02-12T07:04:51;4.20;99.90
16728;DHT22;8482;54.396;18.590;2023-02-12T07:07:17;4.20;99.90
16728;DHT22;8482;54.396;18.590;2023-02-12T07:09:43;4.20;99.90
16728;DHT22;8482;54.396;18.590;2023-02-12T07:12:09;4.20;99.90
16728;DHT22;8482;54.396;18.590;2023-02-12T07:14:34;4.30;99.90
16728;DHT22;8482;54.396;18.590;2023-02-12T07:17:00;4.30;99.90
16728;DHT22;8482;54.396;18.590;2023-02-12T07:19:28;4.30;99.90
16728;DHT22;8482;54.396;18.590;2023-02-12T07:21:55;4.40;99.90
16728;DHT22;8482;54.396;18.590;2023-02-12T07:24:21;4.40;99.90
16728;DHT22;8482;54.396;18.590;2023-02-12T07:26:46;4.40;99.90
16728;DHT22;8482;54.396;18.590;2023-02-12T07:29:12;4.50;99.90
16728;DHT22;8482;54.396;18.590;2023-02-12T07:31:39;4.50;99.90
16728;DHT22;8482;54.396;18.590;2023-02-12T07:34:05;4.50;99.90
16728;DHT22;8482;54.396;18.590;2023-02-12T07:36:32;4.60;99.90
16728;DHT22;8482;54.396;18.590;2023-02-12T07:38:59;4.60;99.90
16728;DHT22;8482;54.396;18.590;2023-02-12T07:41:31;4.60;99.90
16728;DHT22;8482;54.396;18.590;2023-02-12T07:44:04;4.70;99.90
16728;DHT22;8482;54.396;18.590;2023-02-12T07:46:43;4.70;99.90
16728;DHT22;8482;54.396;18.590;2023-02-12T07:49:19;4.80;99.90
16728;DHT22;8482;54.396;18.590;2023-02-12T07:51:47;4.80;99.90
16728;DHT22;8482;54.396;18.590;2023-02-12T07:54:14;4.90;99.90
16728;DHT22;8482;54.396;18.590;2023-02-12T07:56:41;4.90;99.90
16728;DHT22;8482;54.396;18.590;2023-02-12T07:59:12;4.90;99.90
16728;DHT22;8482;54.396;18.590;2023-02-12T08:01:51;5.00;99.90
16728;DHT22;8482;54.396;18.590;2023-02-12T08:04:20;5.00;99.90
16728;DHT22;8482;54.396;18.590;2023-02-12T08:06:50;5.10;99.90
16728;DHT22;8482;54.396;18.590;2023-02-12T08:09:24;5.10;99.90
16728;DHT22;8482;54.396;18.590;2023-02-12T08:11:52;5.20;99.90
16728;DHT22;8482;54.396;18.590;2023-02-12T08:14:20;5.20;99.90
16728;DHT22;8482;54.396;18.590;2023-02-12T08:16:47;5.20;99.90
16728;DHT22;8482;54.396;18.590;2023-02-12T08:19:15;5.20;99.90
16728;DHT22;8482;54.396;18.590;2023-02-12T08:21:41;5.30;99.90
16728;DHT22;8482;54.396;18.590;2023-02-12T08:24:08;5.30;99.90
16728;DHT22;8482;54.396;18.590;2023-02-12T08:26:37;5.30;99.90
16728;DHT22;8482;54.396;18.590;2023-02-12T08:29:13;5.40;99.90
16728;DHT22;8482;54.396;18.590;2023-02-12T08:31:43;5.40;99.90
16728;DHT22;8482;54.396;18.590;2023-02-12T08:34:22;5.40;99.90
16728;DHT22;8482;54.396;18.590;2023-02-12T08:36:53;5.40;99.90
16728;DHT22;8482;54.396;18.590;2023-02-12T08:39:21;5.40;99.90
16728;DHT22;8482;54.396;18.590;2023-02-12T08:41:48;5.40;99.90
16728;DHT22;8482;54.396;18.590;2023-02-12T08:44:15;5.50;99.90
16728;DHT22;8482;54.396;18.590;2023-02-12T08:46:45;5.60;99.90
16728;DHT22;8482;54.396;18.590;2023-02-12T08:49:17;5.60;99.90
16728;DHT22;8482;54.396;18.590;2023-02-12T08:51:49;5.60;99.90
16728;DHT22;8482;54.396;18.590;2023-02-12T08:54:19;5.70;99.90
16728;DHT22;8482;54.396;18.590;2023-02-12T08:56:47;5.70;99.90
16728;DHT22;8482;54.396;18.590;2023-02-12T08:59:14;5.70;99.90
16728;DHT22;8482;54.396;18.590;2023-02-12T09:01:41;5.80;99.90
16728;DHT22;8482;54.396;18.590;2023-02-12T09:04:16;5.80;99.90
16728;DHT22;8482;54.396;18.590;2023-02-12T09:06:46;5.90;99.90
16728;DHT22;8482;54.396;18.590;2023-02-12T09:09:13;5.90;99.90
16728;DHT22;8482;54.396;18.590;2023-02-12T09:11:39;5.90;99.90
16728;DHT22;8482;54.396;18.590;2023-02-12T09:14:09;5.90;99.90
16728;DHT22;8482;54.396;18.590;2023-02-12T09:16:37;6.00;99.90
16728;DHT22;8482;54.396;18.590;2023-02-12T09:19:05;6.00;99.90
16728;DHT22;8482;54.396;18.590;2023-02-12T09:21:31;6.00;99.90
16728;DHT22;8482;54.396;18.590;2023-02-12T09:23:57;6.00;99.90
16728;DHT22;8482;54.396;18.590;2023-02-12T09:26:25;6.00;99.90
16728;DHT22;8482;54.396;18.590;2023-02-12T09:28:51;6.10;99.90
16728;DHT22;8482;54.396;18.590;2023-02-12T09:31:28;6.10;99.90
16728;DHT22;8482;54.396;18.590;2023-02-12T09:34:03;6.10;99.90
16728;DHT22;8482;54.396;18.590;2023-02-12T09:36:32;6.20;99.90
16728;DHT22;8482;54.396;18.590;2023-02-12T09:38:59;6.20;99.90
16728;DHT22;8482;54.396;18.590;2023-02-12T09:44:46;6.30;99.90
16728;DHT22;8482;54.396;18.590;2023-02-12T09:52:59;6.60;99.90
16728;DHT22;8482;54.396;18.590;2023-02-12T09:55:32;6.60;99.90
16728;DHT22;8482;54.396;18.590;2023-02-12T09:58:02;6.70;99.90
16728;DHT22;8482;54.396;18.590;2023-02-12T10:00:34;6.70;99.90
16728;DHT22;8482;54.396;18.590;2023-02-12T10:03:02;6.70;99.90
16728;DHT22;8482;54.396;18.590;2023-02-12T10:05:51;6.70;99.90
16728;DHT22;8482;54.396;18.590;2023-02-12T10:11:53;6.80;99.90
16728;DHT22;8482;54.396;18.590;2023-02-12T10:14:37;6.80;99.90
16728;DHT22;8482;54.396;18.590;2023-02-12T10:20:36;6.90;99.90
16728;DHT22;8482;54.396;18.590;2023-02-12T10:26:14;7.00;99.90
16728;DHT22;8482;54.396;18.590;2023-02-12T10:28:46;7.00;99.90
16728;DHT22;8482;54.396;18.590;2023-02-12T10:34:19;7.10;99.90
16728;DHT22;8482;54.396;18.590;2023-02-12T10:36:48;7.20;99.90
16728;DHT22;8482;54.396;18.590;2023-02-12T10:39:23;7.20;99.90
16728;DHT22;8482;54.396;18.590;2023-02-12T10:42:02;7.30;99.90
16728;DHT22;8482;54.396;18.590;2023-02-12T10:44:42;7.30;99.90
16728;DHT22;8482;54.396;18.590;2023-02-12T10:47:17;7.30;99.90
16728;DHT22;8482;54.396;18.590;2023-02-12T10:50:00;7.40;99.90
16728;DHT22;8482;54.396;18.590;2023-02-12T10:52:46;7.40;99.90
16728;DHT22;8482;54.396;18.590;2023-02-12T10:55:27;7.40;99.90
16728;DHT22;8482;54.396;18.590;2023-02-12T10:58:01;7.50;99.90
16728;DHT22;8482;54.396;18.590;2023-02-12T11:00:32;7.60;99.90
16728;DHT22;8482;54.396;18.590;2023-02-12T11:05:37;7.70;99.90
16728;DHT22;8482;54.396;18.590;2023-02-12T11:08:42;7.70;99.90
16728;DHT22;8482;54.396;18.590;2023-02-12T11:14:02;7.80;99.90
16728;DHT22;8482;54.396;18.590;2023-02-12T11:16:42;7.90;99.90
16728;DHT22;8482;54.396;18.590;2023-02-12T11:19:24;7.90;99.90
16728;DHT22;8482;54.396;18.590;2023-02-12T11:22:12;8.00;99.90
16728;DHT22;8482;54.396;18.590;2023-02-12T11:24:44;8.10;99.90
16728;DHT22;8482;54.396;18.590;2023-02-12T11:29:44;8.20;99.90
16728;DHT22;8482;54.396;18.590;2023-02-12T11:32:18;8.20;99.90
16728;DHT22;8482;54.396;18.590;2023-02-12T11:37:51;8.30;99.90
16728;DHT22;8482;54.396;18.590;2023-02-12T11:40:22;8.40;99.90
16728;DHT22;8482;54.396;18.590;2023-02-12T11:42:55;8.50;99.90
16728;DHT22;8482;54.396;18.590;2023-02-12T11:45:33;8.50;99.90
16728;DHT22;8482;54.396;18.590;2023-02-12T11:51:01;8.70;99.90
16728;DHT22;8482;54.396;18.590;2023-02-12T11:53:32;8.70;99.90
16728;DHT22;8482;54.396;18.590;2023-02-12T11:56:07;8.80;99.90
16728;DHT22;8482;54.396;18.590;2023-02-12T11:58:35;8.90;99.90
16728;DHT22;8482;54.396;18.590;2023-02-12T12:01:29;9.00;99.90
16728;DHT22;8482;54.396;18.590;2023-02-12T12:04:11;9.00;99.90
16728;DHT22;8482;54.396;18.590;2023-02-12T12:06:51;9.10;99.90
16728;DHT22;8482;54.396;18.590;2023-02-12T12:09:46;9.10;99.90
16728;DHT22;8482;54.396;18.590;2023-02-12T12:12:48;9.20;99.90
16728;DHT22;8482;54.396;18.590;2023-02-12T12:15:25;9.10;99.90
16728;DHT22;8482;54.396;18.590;2023-02-12T12:27:03;9.00;99.90
16728;DHT22;8482;54.396;18.590;2023-02-12T12:29:58;9.00;99.90
16728;DHT22;8482;54.396;18.590;2023-02-12T12:32:33;8.90;99.90
16728;DHT22;8482;54.396;18.590;2023-02-12T12:35:02;8.80;99.90
16728;DHT22;8482;54.396;18.590;2023-02-12T12:37:39;8.70;99.90
16728;DHT22;8482;54.396;18.590;2023-02-12T12:40:43;8.70;99.90
16728;DHT22;8482;54.396;18.590;2023-02-12T12:52:59;8.50;99.90
16728;DHT22;8482;54.396;18.590;2023-02-12T12:55:51;8.50;99.90
16728;DHT22;8482;54.396;18.590;2023-02-12T12:58:36;8.50;99.90
16728;DHT22;8482;54.396;18.590;2023-02-12T13:01:28;8.50;99.90
16728;DHT22;8482;54.396;18.590;2023-02-12T13:13:36;8.30;99.90
16728;DHT22;8482;54.396;18.590;2023-02-12T13:16:20;8.30;99.90
16728;DHT22;8482;54.396;18.590;2023-02-12T13:19:22;8.20;99.90
16728;DHT22;8482;54.396;18.590;2023-02-12T13:22:09;8.20;99.90
16728;DHT22;8482;54.396;18.590;2023-02-12T13:25:42;8.10;99.90
16728;DHT22;8482;54.396;18.590;2023-02-12T13:28:41;8.00;99.90
16728;DHT22;8482;54.396;18.590;2023-02-12T13:31:15;7.90;99.90
16728;DHT22;8482;54.396;18.590;2023-02-12T13:33:51;7.90;99.90
16728;DHT22;8482;54.396;18.590;2023-02-12T13:36:24;7.80;99.90
16728;DHT22;8482;54.396;18.590;2023-02-12T13:44:42;7.70;99.90
16728;DHT22;8482;54.396;18.590;2023-02-12T13:47:59;7.70;99.90
16728;DHT22;8482;54.396;18.590;2023-02-12T13:56:48;7.40;99.90
16728;DHT22;8482;54.396;18.590;2023-02-12T14:07:17;7.30;99.90
16728;DHT22;8482;54.396;18.590;2023-02-12T14:10:05;7.20;99.90
16728;DHT22;8482;54.396;18.590;2023-02-12T14:12:34;7.20;99.90
16728;DHT22;8482;54.396;18.590;2023-02-12T14:15:21;7.10;99.90
16728;DHT22;8482;54.396;18.590;2023-02-12T14:18:03;7.10;99.90
16728;DHT22;8482;54.396;18.590;2023-02-12T14:20:32;7.10;99.90
16728;DHT22;8482;54.396;18.590;2023-02-12T14:23:02;7.10;99.90
16728;DHT22;8482;54.396;18.590;2023-02-12T14:26:09;7.10;99.90
16728;DHT22;8482;54.396;18.590;2023-02-12T14:28:53;7.10;99.90
16728;DHT22;8482;54.396;18.590;2023-02-12T14:36:45;7.10;99.90
16728;DHT22;8482;54.396;18.590;2023-02-12T14:41:53;7.20;99.90
16728;DHT22;8482;54.396;18.590;2023-02-12T14:44:59;7.20;99.90
16728;DHT22;8482;54.396;18.590;2023-02-12T14:50:00;7.30;99.90
16728;DHT22;8482;54.396;18.590;2023-02-12T14:52:53;7.30;99.90
16728;DHT22;8482;54.396;18.590;2023-02-12T14:55:31;7.30;99.90
16728;DHT22;8482;54.396;18.590;2023-02-12T14:58:02;7.30;99.90
16728;DHT22;8482;54.396;18.590;2023-02-12T15:00:35;7.30;99.90
16728;DHT22;8482;54.396;18.590;2023-02-12T15:03:22;7.30;99.90
16728;DHT22;8482;54.396;18.590;2023-02-12T15:08:52;7.40;99.90
16728;DHT22;8482;54.396;18.590;2023-02-12T15:12:04;7.40;99.90
16728;DHT22;8482;54.396;18.590;2023-02-12T15:14:38;7.40;99.90
16728;DHT22;8482;54.396;18.590;2023-02-12T15:17:23;7.40;99.90
16728;DHT22;8482;54.396;18.590;2023-02-12T15:20:22;7.30;99.90
16728;DHT22;8482;54.396;18.590;2023-02-12T15:22:52;7.30;99.90
16728;DHT22;8482;54.396;18.590;2023-02-12T15:25:29;7.30;99.90
16728;DHT22;8482;54.396;18.590;2023-02-12T15:31:02;7.30;99.90
16728;DHT22;8482;54.396;18.590;2023-02-12T15:33:36;7.40;99.90
16728;DHT22;8482;54.396;18.590;2023-02-12T15:36:08;7.40;99.90
16728;DHT22;8482;54.396;18.590;2023-02-12T15:38:38;7.40;99.90
16728;DHT22;8482;54.396;18.590;2023-02-12T15:41:07;7.40;99.90
16728;DHT22;8482;54.396;18.590;2023-02-12T15:43:38;7.40;99.90
16728;DHT22;8482;54.396;18.590;2023-02-12T15:46:11;7.40;99.90
16728;DHT22;8482;54.396;18.590;2023-02-12T15:48:41;7.40;99.90
16728;DHT22;8482;54.396;18.590;2023-02-12T15:51:22;7.40;99.90
16728;DHT22;8482;54.396;18.590;2023-02-12T15:53:54;7.40;99.90
16728;DHT22;8482;54.396;18.590;2023-02-12T15:56:23;7.40;99.90
16728;DHT22;8482;54.396;18.590;2023-02-12T15:58:51;7.40;99.90
16728;DHT22;8482;54.396;18.590;2023-02-12T16:01:22;7.40;99.90
16728;DHT22;8482;54.396;18.590;2023-02-12T16:03:51;7.30;99.90
16728;DHT22;8482;54.396;18.590;2023-02-12T16:06:21;7.40;99.90
16728;DHT22;8482;54.396;18.590;2023-02-12T16:09:12;7.40;99.90
16728;DHT22;8482;54.396;18.590;2023-02-12T16:11:43;7.40;99.90
16728;DHT22;8482;54.396;18.590;2023-02-12T16:14:32;7.40;99.90
16728;DHT22;8482;54.396;18.590;2023-02-12T16:17:34;7.40;99.90
16728;DHT22;8482;54.396;18.590;2023-02-12T16:22:42;7.40;99.90
16728;DHT22;8482;54.396;18.590;2023-02-12T16:25:22;7.40;99.90
16728;DHT22;8482;54.396;18.590;2023-02-12T16:27:56;7.40;99.90
16728;DHT22;8482;54.396;18.590;2023-02-12T16:30:30;7.40;99.90
16728;DHT22;8482;54.396;18.590;2023-02-12T16:33:04;7.40;99.90
16728;DHT22;8482;54.396;18.590;2023-02-12T16:41:22;7.40;99.90
16728;DHT22;8482;54.396;18.590;2023-02-12T16:46:43;7.50;99.90
16728;DHT22;8482;54.396;18.590;2023-02-12T16:49:16;7.50;99.90
16728;DHT22;8482;54.396;18.590;2023-02-12T16:51:45;7.50;99.90
16728;DHT22;8482;54.396;18.590;2023-02-12T16:54:32;7.50;99.90
16728;DHT22;8482;54.396;18.590;2023-02-12T16:57:00;7.50;99.90
16728;DHT22;8482;54.396;18.590;2023-02-12T16:59:27;7.50;99.90
16728;DHT22;8482;54.396;18.590;2023-02-12T17:02:12;7.50;99.90
16728;DHT22;8482;54.396;18.590;2023-02-12T17:04:40;7.60;99.90
16728;DHT22;8482;54.396;18.590;2023-02-12T17:07:23;7.60;99.90
16728;DHT22;8482;54.396;18.590;2023-02-12T17:09:52;7.60;99.90
16728;DHT22;8482;54.396;18.590;2023-02-12T17:12:18;7.60;99.90
16728;DHT22;8482;54.396;18.590;2023-02-12T17:14:45;7.60;99.90
16728;DHT22;8482;54.396;18.590;2023-02-12T17:17:11;7.60;99.90
16728;DHT22;8482;54.396;18.590;2023-02-12T17:19:36;7.60;99.90
16728;DHT22;8482;54.396;18.590;2023-02-12T17:22:03;7.60;99.90
16728;DHT22;8482;54.396;18.590;2023-02-12T17:24:31;7.60;99.90
16728;DHT22;8482;54.396;18.590;2023-02-12T17:27:01;7.60;99.90
16728;DHT22;8482;54.396;18.590;2023-02-12T17:29:28;7.60;99.90
16728;DHT22;8482;54.396;18.590;2023-02-12T17:31:55;7.60;99.90
16728;DHT22;8482;54.396;18.590;2023-02-12T17:34:22;7.60;99.90
16728;DHT22;8482;54.396;18.590;2023-02-12T17:36:50;7.60;99.90
16728;DHT22;8482;54.396;18.590;2023-02-12T17:39:17;7.60;99.90
16728;DHT22;8482;54.396;18.590;2023-02-12T17:41:43;7.60;99.90
16728;DHT22;8482;54.396;18.590;2023-02-12T17:44:10;7.70;99.90
16728;DHT22;8482;54.396;18.590;2023-02-12T17:46:38;7.70;99.90
16728;DHT22;8482;54.396;18.590;2023-02-12T17:49:04;7.70;99.90
16728;DHT22;8482;54.396;18.590;2023-02-12T17:51:29;7.70;99.90
16728;DHT22;8482;54.396;18.590;2023-02-12T17:53:56;7.70;99.90
16728;DHT22;8482;54.396;18.590;2023-02-12T17:56:22;7.70;99.90
16728;DHT22;8482;54.396;18.590;2023-02-12T17:58:50;7.70;99.90
16728;DHT22;8482;54.396;18.590;2023-02-12T18:01:20;7.70;99.90
16728;DHT22;8482;54.396;18.590;2023-02-12T18:03:47;7.80;99.90
16728;DHT22;8482;54.396;18.590;2023-02-12T18:06:24;7.80;99.90
16728;DHT22;8482;54.396;18.590;2023-02-12T18:08:52;7.80;99.90
16728;DHT22;8482;54.396;18.590;2023-02-12T18:11:18;7.80;99.90
16728;DHT22;8482;54.396;18.590;2023-02-12T18:13:45;7.80;99.90
16728;DHT22;8482;54.396;18.590;2023-02-12T18:16:12;7.80;99.90
16728;DHT22;8482;54.396;18.590;2023-02-12T18:18:39;7.90;99.90
16728;DHT22;8482;54.396;18.590;2023-02-12T18:21:07;7.90;99.90
16728;DHT22;8482;54.396;18.590;2023-02-12T18:23:34;7.90;99.90
16728;DHT22;8482;54.396;18.590;2023-02-12T18:26:05;7.90;99.90
16728;DHT22;8482;54.396;18.590;2023-02-12T18:28:33;7.90;99.90
16728;DHT22;8482;54.396;18.590;2023-02-12T18:30:59;7.90;99.90
16728;DHT22;8482;54.396;18.590;2023-02-12T18:33:25;7.90;99.90
16728;DHT22;8482;54.396;18.590;2023-02-12T18:36:09;7.90;99.90
16728;DHT22;8482;54.396;18.590;2023-02-12T18:38:37;7.90;99.90
16728;DHT22;8482;54.396;18.590;2023-02-12T18:41:10;7.90;99.90
16728;DHT22;8482;54.396;18.590;2023-02-12T18:43:41;7.90;99.90
16728;DHT22;8482;54.396;18.590;2023-02-12T18:46:16;7.90;99.90
16728;DHT22;8482;54.396;18.590;2023-02-12T18:48:44;8.00;99.90
16728;DHT22;8482;54.396;18.590;2023-02-12T18:51:13;7.90;99.90
16728;DHT22;8482;54.396;18.590;2023-02-12T18:53:42;8.00;99.90